createdAt,value
2019-01-19T00:01:33.669Z,100326.16
2019-01-19T00:04:23.695Z,100327.65
2019-01-19T00:07:24.705Z,100324.98
2019-01-19T00:10:36.322Z,100313.38
2019-01-19T00:13:50.893Z,100316.01
2019-01-19T00:16:57.090Z,100311.02
2019-01-19T00:20:02.198Z,100306.36
2019-01-19T00:23:01.834Z,100305.49
2019-01-19T00:26:08.343Z,100303.15
2019-01-19T00:28:51.719Z,100308.23
2019-01-19T00:31:45.030Z,100309.42
2019-01-19T00:35:17.846Z,100300.75
2019-01-19T00:37:58.266Z,100303.04
2019-01-19T00:41:11.250Z,100304.44
2019-01-19T00:43:55.928Z,100311.14
2019-01-19T00:47:06.603Z,100315.14
2019-01-19T00:50:05.153Z,100309.89
2019-01-19T00:53:15.861Z,100311.34
2019-01-19T00:56:07.893Z,100314.75
2019-01-19T00:58:44.598Z,100316.47
2019-01-19T01:01:45.545Z,100311.59
2019-01-19T01:04:39.344Z,100307.48
2019-01-19T01:07:48.555Z,100301.52
2019-01-19T01:10:52.441Z,100305.30
2019-01-19T01:13:49.469Z,100306.56
2019-01-19T01:16:47.813Z,100300.22
2019-01-19T01:20:12.140Z,100299.08
2019-01-19T01:23:30.178Z,100303.20
2019-01-19T01:26:41.709Z,100304.45
2019-01-19T01:29:41.972Z,100298.73
2019-01-19T01:32:31.092Z,100302.44
2019-01-19T01:35:32.650Z,100295.17
2019-01-19T01:38:13.185Z,100295.27
2019-01-19T01:41:18.848Z,100293.55
2019-01-19T01:44:21.494Z,100294.03
2019-01-19T01:47:34.103Z,100292.02
2019-01-19T01:50:21.839Z,100292.95
2019-01-19T01:53:44.250Z,100288.83
2019-01-19T01:56:16.418Z,100288.92
2019-01-19T01:59:35.820Z,100284.59
2019-01-19T02:02:34.124Z,100280.11
2019-01-19T02:05:27.142Z,100278.67
2019-01-19T02:08:10.378Z,100278.36
2019-01-19T02:11:11.168Z,100282.22
2019-01-19T02:14:00.689Z,100285.98
2019-01-19T02:17:02.445Z,100281.91
2019-01-19T02:19:49.961Z,100280.45
2019-01-19T02:22:26.789Z,100277.13
2019-01-19T02:25:45.773Z,100279.98
2019-01-19T02:28:37.255Z,100276.20
2019-01-19T02:31:36.732Z,100273.11
2019-01-19T02:34:39.253Z,100276.42
2019-01-19T02:38:02.167Z,100276.68
2019-01-19T02:41:02.735Z,100277.37
2019-01-19T02:44:18.376Z,100273.35
2019-01-19T02:47:43.253Z,100272.27
2019-01-19T02:50:42.730Z,100267.41
2019-01-19T02:54:11.915Z,100263.94
2019-01-19T02:57:36.358Z,100254.58
2019-01-19T03:00:39.392Z,100258.83
2019-01-19T03:03:35.838Z,100263.30
2019-01-19T03:06:48.894Z,100256.59
2019-01-19T03:09:54.255Z,100253.91
2019-01-19T03:13:23.530Z,100253.13
2019-01-19T03:16:36.616Z,100253.52
2019-01-19T03:19:35.863Z,100254.83
2019-01-19T03:22:22.942Z,100243.55
2019-01-19T03:25:36.395Z,100243.54
2019-01-19T03:28:29.838Z,100247.02
2019-01-19T03:31:39.986Z,100243.38
2019-01-19T03:34:48.634Z,100237.22
2019-01-19T03:37:48.261Z,100236.83
2019-01-19T03:40:49.889Z,100237.84
2019-01-19T03:43:47.961Z,100241.56
2019-01-19T03:47:08.070Z,100242.47
2019-01-19T03:50:08.440Z,100243.16
2019-01-19T03:53:06.821Z,100233.15
2019-01-19T03:56:16.895Z,100237.67
2019-01-19T03:59:31.558Z,100237.98
2019-01-19T04:02:37.714Z,100231.52
2019-01-19T04:06:16.409Z,100234.36
2019-01-19T04:09:25.935Z,100239.31
2019-01-19T04:12:37.052Z,100229.81
2019-01-19T04:15:39.085Z,100222.49
2019-01-19T04:18:56.331Z,100221.70
2019-01-19T04:21:58.349Z,100222.63
2019-01-19T04:24:39.074Z,100228.48
2019-01-19T04:27:09.538Z,100232.72
2019-01-19T04:29:40.269Z,100228.58
2019-01-19T04:32:10.755Z,100225.25
2019-01-19T04:34:41.738Z,100229.50
2019-01-19T04:37:12.325Z,100227.66
2019-01-19T04:39:43.091Z,100233.67
2019-01-19T04:42:14.231Z,100225.62
2019-01-19T04:44:44.719Z,100231.03
2019-01-19T04:47:15.152Z,100231.42
2019-01-19T04:49:45.590Z,100230.51
2019-01-19T04:52:16.059Z,100225.24
2019-01-19T04:54:48.409Z,100232.25
2019-01-19T04:57:18.920Z,100230.98
2019-01-19T04:59:49.943Z,100224.27
2019-01-19T05:02:20.660Z,100229.16
2019-01-19T05:04:51.126Z,100215.68
2019-01-19T05:07:21.552Z,100217.91
2019-01-19T05:09:52.326Z,100223.83
2019-01-19T05:12:22.760Z,100220.05
2019-01-19T05:14:53.201Z,100219.03
2019-01-19T05:17:23.671Z,100217.05
2019-01-19T05:19:54.106Z,100209.41
2019-01-19T05:22:24.874Z,100208.78
2019-01-19T05:24:55.300Z,100210.93
2019-01-19T05:27:26.034Z,100207.47
2019-01-19T05:29:56.532Z,100209.78
2019-01-19T05:32:27.348Z,100209.78
2019-01-19T05:34:58.173Z,100210.37
2019-01-19T05:37:28.949Z,100211.02
2019-01-19T05:39:59.695Z,100215.98
2019-01-19T05:42:30.180Z,100212.69
2019-01-19T05:45:00.659Z,100211.94
2019-01-19T05:47:31.098Z,100211.94
2019-01-19T05:50:01.536Z,100208.24
2019-01-19T05:52:32.021Z,100216.73
2019-01-19T05:55:02.457Z,100212.33
2019-01-19T05:57:32.959Z,100213.17
2019-01-19T06:00:03.834Z,100215.35
2019-01-19T06:02:34.562Z,100209.59
2019-01-19T06:05:05.372Z,100208.05
2019-01-19T06:07:35.877Z,100209.11
2019-01-19T06:10:07.768Z,100208.01
2019-01-19T06:12:38.507Z,100213.33
2019-01-19T06:15:10.963Z,100222.25
2019-01-19T06:17:41.501Z,100220.66
2019-01-19T06:20:13.916Z,100223.09
2019-01-19T06:22:44.471Z,100222.02
2019-01-19T06:25:15.707Z,100225.12
2019-01-19T06:27:46.139Z,100225.34
2019-01-19T06:30:19.061Z,100233.80
2019-01-19T06:32:49.993Z,100233.80
2019-01-19T06:35:20.417Z,100231.95
2019-01-19T06:37:51.193Z,100231.19
2019-01-19T06:40:21.709Z,100225.83
2019-01-19T06:42:52.301Z,100223.20
2019-01-19T06:45:25.628Z,100228.32
2019-01-19T06:47:56.354Z,100232.50
2019-01-19T06:50:26.793Z,100231.38
2019-01-19T06:52:57.852Z,100233.64
2019-01-19T06:55:30.916Z,100238.75
2019-01-19T06:58:01.655Z,100243.52
2019-01-19T07:00:32.154Z,100240.53
2019-01-19T07:03:02.953Z,100241.59
2019-01-19T07:05:33.686Z,100234.45
2019-01-19T07:08:04.457Z,100234.45
2019-01-19T07:10:34.906Z,100238.60
2019-01-19T07:13:05.339Z,100236.90
2019-01-19T07:15:35.831Z,100237.55
2019-01-19T07:18:06.562Z,100244.34
2019-01-19T07:20:37.293Z,100240.70
2019-01-19T07:23:07.765Z,100243.50
2019-01-19T07:25:38.241Z,100244.27
2019-01-19T07:28:08.948Z,100247.67
2019-01-19T07:30:39.674Z,100245.89
2019-01-19T07:33:10.145Z,100247.41
2019-01-19T07:35:40.583Z,100253.08
2019-01-19T07:38:11.065Z,100253.01
2019-01-19T07:40:41.509Z,100241.47
2019-01-19T07:43:14.680Z,100241.47
2019-01-19T07:45:45.173Z,100247.37
2019-01-19T07:48:15.786Z,100250.14
2019-01-19T07:50:46.524Z,100250.14
2019-01-19T07:53:17.417Z,100251.61
2019-01-19T07:55:47.904Z,100251.61
2019-01-19T07:58:18.341Z,100246.84
2019-01-19T08:00:48.779Z,100247.75
2019-01-19T08:03:19.246Z,100252.67
2019-01-19T08:05:50.017Z,100258.98
2019-01-19T08:08:20.795Z,100254.94
2019-01-19T08:10:51.226Z,100257.02
2019-01-19T08:13:21.670Z,100252.17
2019-01-19T08:15:52.606Z,100252.17
2019-01-19T08:18:23.057Z,100262.78
2019-01-19T08:20:53.489Z,100262.06
2019-01-19T08:23:24.247Z,100260.84
2019-01-19T08:25:54.785Z,100260.84
2019-01-19T08:28:25.447Z,100261.20
2019-01-19T08:30:55.872Z,100261.30
2019-01-19T08:33:26.304Z,100248.62
2019-01-19T08:35:56.946Z,100243.11
2019-01-19T08:38:27.388Z,100252.44
2019-01-19T08:40:57.914Z,100250.50
2019-01-19T08:43:44.606Z,100261.02
2019-01-19T08:46:16.257Z,100258.80
2019-01-19T08:48:46.966Z,100256.97
2019-01-19T08:51:17.578Z,100256.97
2019-01-19T08:53:48.046Z,100252.52
2019-01-19T08:56:18.484Z,100266.18
2019-01-19T08:58:48.970Z,100252.98
2019-01-19T09:01:19.414Z,100259.20
2019-01-19T09:03:50.133Z,100257.96
2019-01-19T09:06:20.591Z,100248.96
2019-01-19T09:08:51.028Z,100260.77
2019-01-19T09:11:21.803Z,100255.58
2019-01-19T09:13:52.254Z,100254.73
2019-01-19T09:16:23.679Z,100246.95
2019-01-19T09:18:54.144Z,100251.11
2019-01-19T09:21:24.577Z,100247.71
2019-01-19T09:23:59.850Z,100245.70
2019-01-19T09:26:30.586Z,100252.71
2019-01-19T09:29:01.034Z,100249.00
2019-01-19T09:31:31.507Z,100243.83
2019-01-19T09:34:01.944Z,100248.13
2019-01-19T09:36:33.061Z,100253.23
2019-01-19T09:39:04.605Z,100249.47
2019-01-19T09:41:35.070Z,100248.66
2019-01-19T09:44:05.854Z,100248.73
2019-01-19T09:46:36.581Z,100244.43
2019-01-19T09:49:07.072Z,100244.02
2019-01-19T09:51:37.801Z,100243.63
2019-01-19T09:54:08.522Z,100245.30
2019-01-19T09:56:38.972Z,100247.96
2019-01-19T09:59:09.412Z,100248.83
2019-01-19T10:01:39.893Z,100250.17
2019-01-19T10:04:10.322Z,100245.23
2019-01-19T10:06:41.325Z,100246.27
2019-01-19T10:09:11.785Z,100241.73
2019-01-19T10:11:42.512Z,100240.52
2019-01-19T10:14:13.282Z,100239.59
2019-01-19T10:16:44.016Z,100235.66
2019-01-19T10:19:15.028Z,100237.56
2019-01-19T10:21:45.483Z,100239.47
2019-01-19T10:24:15.914Z,100240.34
2019-01-19T10:26:46.955Z,100237.09
2019-01-19T10:29:17.958Z,100233.17
2019-01-19T10:31:48.388Z,100237.41
2019-01-19T10:34:19.404Z,100237.32
2019-01-19T10:36:49.906Z,100237.16
2019-01-19T10:39:20.396Z,100235.31
2019-01-19T10:41:50.857Z,100234.00
2019-01-19T10:44:21.576Z,100232.21
2019-01-19T10:46:52.042Z,100231.26
2019-01-19T10:49:22.764Z,100226.46
2019-01-19T10:51:59.324Z,100227.78
2019-01-19T10:54:25.662Z,100226.64
2019-01-19T10:56:56.099Z,100226.64
2019-01-19T10:59:26.555Z,100222.51
2019-01-19T11:01:56.995Z,100217.63
2019-01-19T11:04:27.458Z,100207.63
2019-01-19T11:06:57.900Z,100205.14
2019-01-19T11:09:28.662Z,100204.03
2019-01-19T11:11:59.103Z,100201.75
2019-01-19T11:14:29.563Z,100202.13
2019-01-19T11:17:00.365Z,100201.92
2019-01-19T11:19:30.838Z,100192.97
2019-01-19T11:22:01.288Z,100188.91
2019-01-19T11:24:31.738Z,100183.14
2019-01-19T11:27:02.547Z,100182.71
2019-01-19T11:29:33.009Z,100176.88
2019-01-19T11:32:03.958Z,100178.19
2019-01-19T11:34:34.680Z,100176.16
2019-01-19T11:37:05.211Z,100171.44
2019-01-19T11:39:35.693Z,100173.81
2019-01-19T11:42:06.152Z,100172.59
2019-01-19T11:44:36.587Z,100169.03
2019-01-19T11:47:07.065Z,100163.58
2019-01-19T11:49:37.502Z,100162.75
2019-01-19T11:52:07.929Z,100164.01
2019-01-19T11:54:38.684Z,100160.49
2019-01-19T11:57:30.584Z,100158.79
2019-01-19T12:00:01.405Z,100157.39
2019-01-19T12:02:36.941Z,100150.07
2019-01-19T12:05:05.576Z,100150.55
2019-01-19T12:07:36.121Z,100152.32
2019-01-19T12:10:09.000Z,100152.27
2019-01-19T12:12:39.492Z,100147.20
2019-01-19T12:15:10.746Z,100148.56
2019-01-19T12:17:41.193Z,100143.43
2019-01-19T12:20:35.358Z,100147.70
2019-01-19T12:23:06.015Z,100143.54
2019-01-19T12:25:36.448Z,100135.92
2019-01-19T12:28:07.344Z,100134.97
2019-01-19T12:30:38.189Z,100131.73
2019-01-19T12:33:09.329Z,100128.78
2019-01-19T12:35:39.813Z,100129.01
2019-01-19T12:38:10.257Z,100126.03
2019-01-19T12:40:41.027Z,100119.91
2019-01-19T12:43:23.004Z,100120.97
2019-01-19T12:46:12.483Z,100118.33
2019-01-19T12:48:43.031Z,100114.33
2019-01-19T12:51:14.936Z,100122.25
2019-01-19T12:53:45.388Z,100116.22
2019-01-19T12:56:15.871Z,100114.74
2019-01-19T12:58:46.312Z,100111.30
2019-01-19T13:01:16.857Z,100112.58
2019-01-19T13:03:47.750Z,100107.61
2019-01-19T13:06:47.240Z,100109.00
2019-01-19T13:09:41.638Z,100111.48
2019-01-19T13:12:48.298Z,100109.05
2019-01-19T13:15:56.883Z,100102.70
2019-01-19T13:19:00.955Z,100093.30
2019-01-19T13:22:08.875Z,100098.32
2019-01-19T13:25:20.036Z,100090.80
2019-01-19T13:28:25.242Z,100087.91
2019-01-19T13:31:27.548Z,100087.56
2019-01-19T13:34:50.976Z,100084.50
2019-01-19T13:38:14.541Z,100080.91
2019-01-19T13:41:31.680Z,100080.11
2019-01-19T13:44:51.211Z,100075.77
2019-01-19T13:48:20.632Z,100081.43
2019-01-19T13:51:21.963Z,100073.56
2019-01-19T13:54:54.993Z,100069.28
2019-01-19T13:58:08.901Z,100071.14
2019-01-19T14:01:07.716Z,100062.98
2019-01-19T14:04:34.250Z,100065.52
2019-01-19T14:07:34.643Z,100069.12
2019-01-19T14:10:25.488Z,100056.67
2019-01-19T14:13:36.849Z,100057.03
2019-01-19T14:16:38.705Z,100056.54
2019-01-19T14:19:38.605Z,100058.47
2019-01-19T14:22:35.874Z,100053.56
2019-01-19T14:25:47.822Z,100043.52
2019-01-19T14:29:17.166Z,100047.66
2019-01-19T14:32:17.181Z,100042.19
2019-01-19T14:35:21.635Z,100042.59
2019-01-19T14:38:28.784Z,100039.31
2019-01-19T14:41:44.872Z,100035.52
2019-01-19T14:44:24.333Z,100038.64
2019-01-19T14:47:20.445Z,100042.73
2019-01-19T14:50:22.650Z,100036.13
2019-01-19T14:53:27.299Z,100029.53
2019-01-19T14:56:27.948Z,100034.36
2019-01-19T14:59:39.290Z,100032.03
2019-01-19T15:02:47.225Z,100030.25
2019-01-19T15:06:00.145Z,100025.88
2019-01-19T15:09:03.828Z,100020.52
2019-01-19T15:12:29.373Z,100022.06
2019-01-19T15:15:40.201Z,100021.13
2019-01-19T15:18:47.728Z,100019.51
2019-01-19T15:22:09.488Z,100016.59
2019-01-19T15:25:05.945Z,100003.80
2019-01-19T15:28:03.485Z,100010.55
2019-01-19T15:31:08.047Z,100012.45
2019-01-19T15:34:16.251Z,100007.44
2019-01-19T15:37:27.019Z,100012.12
2019-01-19T15:40:41.886Z,100017.88
2019-01-19T15:43:57.416Z,100012.65
2019-01-19T15:47:29.773Z,100003.95
2019-01-19T15:50:37.839Z,100005.16
2019-01-19T15:53:17.252Z,99999.36
2019-01-19T15:56:34.078Z,100001.49
2019-01-19T15:59:42.801Z,100003.34
2019-01-19T16:02:45.353Z,99999.23
2019-01-19T16:05:52.392Z,100000.92
2019-01-19T16:08:44.582Z,99996.52
2019-01-19T16:11:29.438Z,100003.03
2019-01-19T16:14:27.427Z,100005.67
2019-01-19T16:17:34.825Z,100008.98
2019-01-19T16:20:42.278Z,100005.87
2019-01-19T16:23:52.952Z,100003.72
2019-01-19T16:27:00.387Z,99997.31
2019-01-19T16:29:48.548Z,99996.78
2019-01-19T16:33:07.496Z,99993.94
2019-01-19T16:36:00.864Z,99997.05
2019-01-19T16:39:02.003Z,99990.48
2019-01-19T16:42:11.664Z,99996.23
2019-01-19T16:45:09.507Z,99996.50
2019-01-19T16:48:11.094Z,99993.03
2019-01-19T16:51:09.421Z,99988.14
2019-01-19T16:54:13.930Z,99989.92
2019-01-19T16:57:12.897Z,99987.58
2019-01-19T17:00:14.639Z,99983.45
2019-01-19T17:03:36.534Z,99977.25
2019-01-19T17:06:21.556Z,99975.73
2019-01-19T17:09:33.114Z,99971.61
2019-01-19T17:12:37.521Z,99972.45
2019-01-19T17:15:32.731Z,99967.46
2019-01-19T17:18:56.408Z,99965.39
2019-01-19T17:22:16.408Z,99963.53
2019-01-19T17:25:29.314Z,99969.54
2019-01-19T17:28:14.960Z,99975.09
2019-01-19T17:31:22.168Z,99967.95
2019-01-19T17:34:38.647Z,99966.99
2019-01-19T17:37:33.187Z,99968.99
2019-01-19T17:40:32.458Z,99973.39
2019-01-19T17:44:05.154Z,99973.11
2019-01-19T17:46:51.918Z,99966.98
2019-01-19T17:49:48.505Z,99970.39
2019-01-19T17:52:34.351Z,99967.27
2019-01-19T17:55:24.068Z,99965.77
2019-01-19T17:58:44.323Z,99965.03
2019-01-19T18:01:41.909Z,99958.83
2019-01-19T18:04:27.756Z,99958.75
2019-01-19T18:07:46.064Z,99952.80
2019-01-19T18:10:55.823Z,99956.86
2019-01-19T18:14:08.120Z,99949.14
2019-01-19T18:17:25.695Z,99954.33
2019-01-19T18:20:27.985Z,99950.10
2019-01-19T18:23:33.645Z,99957.89
2019-01-19T18:26:32.523Z,99957.88
2019-01-19T18:29:22.793Z,99959.77
2019-01-19T18:32:31.365Z,99958.55
2019-01-19T18:35:36.709Z,99957.88
2019-01-19T18:38:41.378Z,99952.43
2019-01-19T18:41:58.989Z,99951.09
2019-01-19T18:45:22.678Z,99947.98
2019-01-19T18:48:29.948Z,99950.23
2019-01-19T18:51:39.264Z,99950.03
2019-01-19T18:54:55.578Z,99956.70
2019-01-19T18:58:16.777Z,99954.91
2019-01-19T19:01:17.603Z,99955.20
2019-01-19T19:04:38.894Z,99947.95
2019-01-19T19:07:29.944Z,99948.49
2019-01-19T19:10:55.510Z,99950.58
2019-01-19T19:13:52.046Z,99952.44
2019-01-19T19:16:49.962Z,99956.47
2019-01-19T19:19:53.504Z,99950.34
2019-01-19T19:22:46.153Z,99950.38
2019-01-19T19:25:54.811Z,99948.78
2019-01-19T19:29:05.206Z,99955.02
2019-01-19T19:31:54.497Z,99950.88
2019-01-19T19:35:05.652Z,99953.22
2019-01-19T19:38:29.938Z,99954.38
2019-01-19T19:41:24.273Z,99951.74
2019-01-19T19:44:46.466Z,99952.53
2019-01-19T19:48:03.183Z,99947.13
2019-01-19T19:51:05.831Z,99951.70
2019-01-19T19:53:36.978Z,99953.54
2019-01-19T19:56:05.654Z,99956.26
2019-01-19T19:58:36.406Z,99947.02
2019-01-19T20:01:07.556Z,99949.73
2019-01-19T20:03:38.411Z,99952.32
2019-01-19T20:06:08.925Z,99947.16
2019-01-19T20:08:41.194Z,99951.01
2019-01-19T20:11:12.038Z,99947.16
2019-01-19T20:13:42.530Z,99950.13
2019-01-19T20:16:14.118Z,99951.14
2019-01-19T20:18:45.088Z,99947.11
2019-01-19T20:21:15.843Z,99951.92
2019-01-19T20:23:46.323Z,99946.62
2019-01-19T20:26:16.903Z,99949.72
2019-01-19T20:28:47.470Z,99947.91
2019-01-19T20:31:17.968Z,99945.69
2019-01-19T20:33:48.429Z,99949.63
2019-01-19T20:36:18.914Z,99944.28
2019-01-19T20:38:49.439Z,99950.31
2019-01-19T20:41:19.931Z,99951.98
2019-01-19T20:43:50.863Z,99950.13
2019-01-19T20:46:21.346Z,99956.58
2019-01-19T20:48:51.808Z,99952.14
2019-01-19T20:51:23.358Z,99951.16
2019-01-19T20:53:54.543Z,99950.95
2019-01-19T20:56:25.091Z,99953.73
2019-01-19T20:58:55.955Z,99955.80
2019-01-19T21:01:27.148Z,99951.86
2019-01-19T21:03:57.634Z,99950.48
2019-01-19T21:06:28.448Z,99950.56
2019-01-19T21:08:58.942Z,99952.78
2019-01-19T21:11:29.554Z,99950.25
2019-01-19T21:14:00.070Z,99949.74
2019-01-19T21:16:30.554Z,99954.42
2019-01-19T21:19:01.118Z,99952.57
2019-01-19T21:21:33.378Z,99950.88
2019-01-19T21:24:03.925Z,99950.52
2019-01-19T21:26:35.121Z,99952.91
2019-01-19T21:29:06.062Z,99947.36
2019-01-19T21:31:37.527Z,99948.64
2019-01-19T21:34:08.064Z,99938.98
2019-01-19T21:36:38.517Z,99943.33
2019-01-19T21:39:10.113Z,99945.14
2019-01-19T21:41:41.323Z,99942.29
2019-01-19T21:44:11.848Z,99947.06
2019-01-19T21:46:42.308Z,99936.73
2019-01-19T21:49:14.148Z,99942.73
2019-01-19T21:51:44.621Z,99938.67
2019-01-19T21:54:15.475Z,99939.51
2019-01-19T21:56:45.977Z,99937.84
2019-01-19T21:59:16.711Z,99939.98
2019-01-19T22:01:47.615Z,99936.47
2019-01-19T22:04:18.090Z,99938.17
2019-01-19T22:06:48.893Z,99935.55
2019-01-19T22:09:19.544Z,99936.17
2019-01-19T22:11:50.005Z,99938.58
2019-01-19T22:14:22.021Z,99930.32
2019-01-19T22:16:53.468Z,99934.86
2019-01-19T22:19:23.918Z,99943.52
2019-01-19T22:21:54.411Z,99945.75
2019-01-19T22:24:24.865Z,99938.48
2019-01-19T22:26:55.591Z,99942.90
2019-01-19T22:29:26.617Z,99942.30
2019-01-19T22:31:57.090Z,99943.31
2019-01-19T22:34:27.969Z,99935.62
2019-01-19T22:36:58.460Z,99933.92
2019-01-19T22:39:29.287Z,99940.86
2019-01-19T22:41:59.867Z,99937.23
2019-01-19T22:44:31.066Z,99939.95
2019-01-19T22:47:01.558Z,99937.78
2019-01-19T22:49:32.005Z,99934.80
2019-01-19T22:52:04.041Z,99935.42
2019-01-19T22:54:34.508Z,99930.48
2019-01-19T22:57:05.235Z,99929.27
2019-01-19T22:59:36.107Z,99930.41
2019-01-19T23:02:10.607Z,99927.78
2019-01-19T23:04:41.099Z,99936.66
2019-01-19T23:07:11.545Z,99926.47
2019-01-19T23:09:41.988Z,99932.28
2019-01-19T23:12:12.484Z,99931.67
2019-01-19T23:14:43.297Z,99929.58
2019-01-19T23:17:13.777Z,99929.36
2019-01-19T23:19:44.214Z,99930.63
2019-01-19T23:22:14.659Z,99929.32
2019-01-19T23:24:45.202Z,99932.55
2019-01-19T23:27:15.642Z,99929.88
2019-01-19T23:29:46.107Z,99924.11
2019-01-19T23:32:16.897Z,99925.48
2019-01-19T23:34:47.426Z,99920.32
2019-01-19T23:37:18.283Z,99913.55
2019-01-19T23:39:48.723Z,99919.48
2019-01-19T23:42:19.223Z,99918.31
2019-01-19T23:44:49.658Z,99917.78
2019-01-19T23:47:20.146Z,99923.72
2019-01-19T23:49:50.592Z,99922.89
2019-01-19T23:52:21.373Z,99921.09
2019-01-19T23:54:52.208Z,99927.13
2019-01-19T23:57:22.657Z,99923.41
2019-01-19T23:59:53.142Z,99926.35
